Time;durP1;ratioP1;P1;durP2;ratioP2;P2;SDS_P1;SDS_P2;PMS_P1;PMS_P2;Temp;Humidity;BMP_temperature;BMP_pressure;BME280_temperature;BME280_humidity;BME280_pressure;Samples;Min_cycle;Max_cycle;Signal;HPM_P1;HPM_P2
2023/07/25 00:00:06;;;;;;;4.87;1.27;;;14.40;99.90;;;;;;5095359;28;20134;-51
2023/07/25 00:02:31;;;;;;;;;;;14.30;99.90;;;;;;5096873;28;20282;-51
2023/07/25 00:04:57;;;;;;;2.50;1.02;;;14.30;99.90;;;;;;5096253;28;20358;-50
2023/07/25 00:07:23;;;;;;;5.43;1.17;;;14.30;99.90;;;;;;5096529;28;20449;-50
2023/07/25 00:09:48;;;;;;;4.47;1.20;;;14.30;99.90;;;;;;5095022;28;20285;-52
2023/07/25 00:12:14;;;;;;;3.53;1.17;;;14.30;99.90;;;;;;5096022;28;20510;-50
2023/07/25 00:14:40;;;;;;;5.17;1.33;;;14.30;99.90;;;;;;5096243;28;20040;-49
2023/07/25 00:17:05;;;;;;;4.57;1.37;;;14.30;99.90;;;;;;5095094;28;20059;-50
2023/07/25 00:19:31;;;;;;;3.73;1.33;;;14.30;99.90;;;;;;5095171;28;20282;-52
2023/07/25 00:21:56;;;;;;;3.27;1.03;;;14.20;99.90;;;;;;5096224;28;20046;-50
2023/07/25 00:24:22;;;;;;;3.67;1.00;;;14.20;99.90;;;;;;5094797;28;20298;-52
2023/07/25 00:26:48;;;;;;;3.33;1.03;;;14.20;99.90;;;;;;5094598;28;20048;-51
2023/07/25 00:29:13;;;;;;;3.60;1.10;;;14.20;99.90;;;;;;5095799;28;20274;-54
2023/07/25 00:31:39;;;;;;;6.00;1.00;;;14.20;99.90;;;;;;5095942;28;20478;-49
2023/07/25 00:34:06;;;;;;;4.57;1.20;;;14.20;99.90;;;;;;5095890;28;20347;-50
2023/07/25 00:36:32;;;;;;;4.10;1.10;;;14.20;99.90;;;;;;5096116;28;20125;-49
2023/07/25 00:38:58;;;;;;;2.60;0.95;;;14.20;99.90;;;;;;5095668;28;20044;-50
2023/07/25 00:41:24;;;;;;;5.72;1.30;;;14.20;99.90;;;;;;5095524;28;20132;-54
2023/07/25 00:43:50;;;;;;;3.45;0.90;;;14.20;99.90;;;;;;5094990;28;20127;-50
2023/07/25 00:46:16;;;;;;;5.27;1.30;;;14.10;99.90;;;;;;5095341;28;20040;-52
2023/07/25 00:48:45;;;;;;;2.00;0.90;;;14.10;99.90;;;;;;5095637;28;20129;-50
2023/07/25 00:51:11;;;;;;;3.33;1.17;;;14.10;99.90;;;;;;5095546;28;20055;-49
2023/07/25 00:53:37;;;;;;;3.97;1.23;;;14.10;99.90;;;;;;5095508;28;20044;-50
2023/07/25 00:56:04;;;;;;;4.03;1.10;;;14.10;99.90;;;;;;5095342;28;20044;-50
2023/07/25 00:58:29;;;;;;;3.03;0.90;;;14.00;99.90;;;;;;5095209;28;20051;-49
2023/07/25 01:01:03;;;;;;;5.00;1.10;;;14.00;99.90;;;;;;5095720;28;20044;-49
2023/07/25 01:03:30;;;;;;;2.60;1.13;;;14.00;99.90;;;;;;5095129;28;20043;-49
2023/07/25 01:05:59;;;;;;;3.72;1.30;;;14.00;99.90;;;;;;5094120;28;20161;-50
2023/07/25 01:08:25;;;;;;;2.90;1.17;;;14.00;99.90;;;;;;5095126;28;20048;-53
2023/07/25 01:10:51;;;;;;;3.17;1.03;;;14.00;99.90;;;;;;5093667;28;20044;-51
2023/07/25 01:13:16;;;;;;;3.80;1.30;;;14.00;99.90;;;;;;5095125;28;20274;-49
2023/07/25 01:15:42;;;;;;;3.57;1.30;;;13.90;99.90;;;;;;5095042;28;20101;-49
2023/07/25 01:18:09;;;;;;;3.25;1.08;;;13.90;99.90;;;;;;5094957;28;20047;-50
2023/07/25 01:20:35;;;;;;;3.67;1.30;;;13.90;99.90;;;;;;5095000;28;20059;-51
2023/07/25 01:23:02;;;;;;;3.58;0.93;;;13.90;99.90;;;;;;5094857;28;20110;-49
2023/07/25 01:25:28;;;;;;;3.33;1.02;;;13.90;99.90;;;;;;5094602;28;20105;-53
2023/07/25 01:27:53;;;;;;;2.92;1.00;;;13.80;99.90;;;;;;5094799;28;20044;-52
2023/07/25 01:30:19;;;;;;;2.43;0.90;;;13.80;99.90;;;;;;5095032;28;20437;-51
2023/07/25 01:32:45;;;;;;;3.97;1.23;;;13.80;99.90;;;;;;5094580;28;20113;-50
2023/07/25 01:35:11;;;;;;;4.93;1.27;;;13.90;99.90;;;;;;5094617;28;20475;-51
2023/07/25 01:37:36;;;;;;;4.55;1.23;;;13.90;99.90;;;;;;5094595;28;20044;-48
2023/07/25 01:40:03;;;;;;;5.43;1.10;;;13.80;99.90;;;;;;5093464;28;20098;-52
2023/07/25 01:42:28;;;;;;;5.20;1.15;;;13.90;99.90;;;;;;5093515;28;20509;-53
2023/07/25 01:44:54;;;;;;;3.07;1.17;;;13.90;99.90;;;;;;5094576;28;20052;-50
2023/07/25 01:47:25;;;;;;;4.43;1.20;;;13.90;99.90;;;;;;5094303;28;20677;-54
2023/07/25 01:49:52;;;;;;;5.50;1.00;;;13.90;99.90;;;;;;5094683;28;20048;-49
2023/07/25 01:52:17;;;;;;;3.42;1.15;;;13.90;99.90;;;;;;5094434;28;20051;-45
2023/07/25 01:54:43;;;;;;;4.13;1.00;;;13.90;99.90;;;;;;5094338;28;20060;-50
2023/07/25 01:57:09;;;;;;;4.30;1.20;;;14.00;99.90;;;;;;5093406;28;20044;-49
2023/07/25 01:59:35;;;;;;;3.70;1.00;;;14.00;99.90;;;;;;5094643;28;20126;-53
2023/07/25 02:02:00;;;;;;;5.18;1.40;;;14.00;99.90;;;;;;5094148;28;20047;-52
2023/07/25 02:04:26;;;;;;;3.85;1.13;;;14.00;99.90;;;;;;5093874;28;20059;-51
2023/07/25 02:06:52;;;;;;;4.33;1.27;;;14.00;99.90;;;;;;5093900;28;20071;-53
2023/07/25 02:09:17;;;;;;;7.67;2.03;;;14.10;99.90;;;;;;5092832;28;20807;-50
2023/07/25 02:11:43;;;;;;;3.03;0.97;;;14.10;99.90;;;;;;5094111;28;20122;-49
2023/07/25 02:14:09;;;;;;;3.33;1.27;;;14.10;99.90;;;;;;5094006;28;20083;-50
2023/07/25 02:16:36;;;;;;;19.53;1.70;;;14.20;99.90;;;;;;5094045;28;20282;-50
2023/07/25 02:19:03;;;;;;;4.18;1.40;;;14.20;99.90;;;;;;5093822;28;20388;-52
2023/07/25 02:21:29;;;;;;;3.80;1.25;;;14.20;99.90;;;;;;5093974;28;20051;-51
2023/07/25 02:23:54;;;;;;;5.60;1.35;;;14.20;99.90;;;;;;5075659;28;20052;-52
2023/07/25 02:26:20;;;;;;;4.10;1.23;;;14.20;99.90;;;;;;5094148;28;20453;-50
2023/07/25 02:28:46;;;;;;;4.90;1.23;;;14.20;99.90;;;;;;5094050;28;20127;-47
2023/07/25 02:31:11;;;;;;;4.93;1.17;;;14.30;99.90;;;;;;5093684;28;20048;-46
2023/07/25 02:33:38;;;;;;;3.67;1.20;;;14.30;99.90;;;;;;5093857;28;20049;-46
2023/07/25 02:36:05;;;;;;;4.25;1.45;;;14.30;99.90;;;;;;5093746;28;20054;-47
2023/07/25 02:38:30;;;;;;;5.43;1.20;;;14.30;99.90;;;;;;5093641;28;20484;-46
2023/07/25 02:40:56;;;;;;;4.30;1.17;;;14.30;99.90;;;;;;5076035;28;20148;-46
2023/07/25 02:43:22;;;;;;;3.57;1.10;;;14.30;99.90;;;;;;5093633;28;20294;-46
2023/07/25 02:45:51;;;;;;;4.00;1.05;;;14.30;99.90;;;;;;5093626;28;20052;-46
2023/07/25 02:48:17;;;;;;;2.60;0.93;;;14.30;99.90;;;;;;5093515;28;20123;-47
2023/07/25 02:50:43;;;;;;;2.50;0.70;;;14.30;99.90;;;;;;5093663;28;20263;-46
2023/07/25 02:53:09;;;;;;;2.50;0.90;;;14.30;99.90;;;;;;5075833;28;20044;-46
2023/07/25 02:55:34;;;;;;;3.45;0.70;;;14.40;99.90;;;;;;5093773;28;20051;-46
2023/07/25 02:58:00;;;;;;;3.87;0.90;;;14.40;99.90;;;;;;5093602;28;20047;-46
2023/07/25 03:00:26;;;;;;;3.57;1.10;;;14.40;99.90;;;;;;5093614;28;20051;-47
2023/07/25 03:02:51;;;;;;;3.17;0.73;;;14.40;99.90;;;;;;5093473;28;20298;-46
2023/07/25 03:05:18;;;;;;;2.33;0.83;;;14.40;99.90;;;;;;5093269;28;20060;-46
2023/07/25 03:07:44;;;;;;;3.10;1.20;;;14.40;99.90;;;;;;5094410;28;20079;-47
2023/07/25 03:10:09;;;;;;;2.50;0.80;;;14.40;99.90;;;;;;5097531;28;20491;-46
2023/07/25 03:12:35;;;;;;;2.92;1.00;;;14.40;99.90;;;;;;5097379;28;20056;-46
2023/07/25 03:15:02;;;;;;;4.10;0.83;;;14.40;99.90;;;;;;5097388;28;20429;-45
2023/07/25 03:17:28;;;;;;;3.42;1.40;;;14.40;99.90;;;;;;5097253;28;20044;-46
2023/07/25 03:19:54;;;;;;;5.03;0.90;;;14.40;99.90;;;;;;5097200;28;20048;-46
2023/07/25 03:22:20;;;;;;;5.53;1.13;;;14.40;99.90;;;;;;5096975;28;20545;-46
2023/07/25 03:24:46;;;;;;;2.58;0.95;;;14.40;99.90;;;;;;5097052;28;20044;-46
2023/07/25 03:27:12;;;;;;;3.10;0.82;;;14.40;99.90;;;;;;5097210;28;20093;-48
2023/07/25 03:29:38;;;;;;;2.60;0.90;;;14.40;99.90;;;;;;5097100;28;20043;-49
2023/07/25 03:32:04;;;;;;;2.93;0.93;;;14.40;99.90;;;;;;5097009;28;20513;-49
2023/07/25 03:34:29;;;;;;;3.13;0.88;;;14.30;99.90;;;;;;5097059;28;20036;-49
2023/07/25 03:36:55;;;;;;;2.13;0.80;;;14.40;99.90;;;;;;5096738;28;20056;-49
2023/07/25 03:39:21;;;;;;;3.70;1.17;;;14.40;99.90;;;;;;5095713;28;20040;-49
2023/07/25 03:41:46;;;;;;;2.77;1.00;;;14.40;99.90;;;;;;5096905;28;20048;-49
2023/07/25 03:44:17;;;;;;;2.20;0.83;;;14.30;99.90;;;;;;5078797;28;20298;-49
2023/07/25 03:46:44;;;;;;;4.75;1.00;;;14.40;99.90;;;;;;5096916;28;20050;-49
2023/07/25 03:49:10;;;;;;;4.50;1.20;;;14.30;99.90;;;;;;5096636;28;20048;-48
2023/07/25 03:51:36;;;;;;;6.00;1.27;;;14.30;99.90;;;;;;5096471;28;20051;-49
2023/07/25 03:54:03;;;;;;;2.70;0.80;;;14.30;99.90;;;;;;5096703;28;20053;-49
2023/07/25 03:56:29;;;;;;;;;;;14.30;99.90;;;;;;5097229;28;20047;-48
2023/07/25 03:58:54;;;;;;;2.95;1.00;;;14.30;99.90;;;;;;5096600;28;20473;-48
2023/07/25 04:01:20;;;;;;;3.27;1.00;;;14.30;99.90;;;;;;5096381;28;20048;-49
2023/07/25 04:03:46;;;;;;;3.10;1.17;;;14.30;99.90;;;;;;5096150;28;20087;-48
2023/07/25 04:06:12;;;;;;;5.18;1.52;;;14.30;99.90;;;;;;5096704;28;20290;-49
2023/07/25 04:08:37;;;;;;;8.45;0.90;;;14.30;99.90;;;;;;5096169;28;20040;-48
2023/07/25 04:11:03;;;;;;;2.87;1.00;;;14.30;99.90;;;;;;5096275;28;20040;-49
2023/07/25 04:13:29;;;;;;;4.77;1.27;;;14.30;99.90;;;;;;5094962;28;20305;-49
2023/07/25 04:15:54;;;;;;;3.10;0.95;;;14.30;99.90;;;;;;5096254;28;20629;-48
2023/07/25 04:18:20;;;;;;;5.13;1.17;;;14.20;99.90;;;;;;5096055;28;20055;-48
2023/07/25 04:20:46;;;;;;;3.05;1.10;;;14.20;99.90;;;;;;5093910;28;20044;-48
2023/07/25 04:23:11;;;;;;;5.80;1.17;;;14.20;99.90;;;;;;5096039;28;20047;-48
2023/07/25 04:25:37;;;;;;;4.40;1.20;;;14.20;99.90;;;;;;5096033;28;20048;-48
2023/07/25 04:28:03;;;;;;;3.00;1.00;;;14.10;99.90;;;;;;5096017;28;20066;-48
2023/07/25 04:30:28;;;;;;;2.95;0.90;;;14.10;99.90;;;;;;5095803;28;20155;-48
2023/07/25 04:32:54;;;;;;;3.05;1.10;;;14.10;99.90;;;;;;5095838;28;20040;-49
2023/07/25 04:35:20;;;;;;;5.07;1.40;;;14.10;99.90;;;;;;5096388;28;20044;-48
2023/07/25 04:37:45;;;;;;;3.53;1.00;;;14.10;99.90;;;;;;5095835;28;20629;-48
2023/07/25 04:40:11;;;;;;;2.83;1.30;;;14.10;99.90;;;;;;5094711;28;20055;-49
2023/07/25 04:42:37;;;;;;;3.00;1.13;;;14.10;99.90;;;;;;5095764;28;20051;-48
2023/07/25 04:45:04;;;;;;;3.13;1.17;;;14.10;99.90;;;;;;5095836;28;20506;-48
2023/07/25 04:47:30;;;;;;;5.70;1.13;;;14.10;99.90;;;;;;5095511;28;20286;-48
2023/07/25 04:49:55;;;;;;;3.93;1.33;;;14.10;99.90;;;;;;5095504;28;20044;-48
2023/07/25 04:52:21;;;;;;;6.23;1.60;;;14.10;99.90;;;;;;5095883;28;20365;-49
2023/07/25 04:54:46;;;;;;;3.43;1.03;;;14.10;99.90;;;;;;5095479;28;20372;-48
2023/07/25 04:57:12;;;;;;;3.97;1.23;;;14.10;99.90;;;;;;5095429;28;20044;-48
2023/07/25 04:59:38;;;;;;;3.23;1.07;;;14.10;99.90;;;;;;5095503;28;20110;-48
2023/07/25 05:02:04;;;;;;;5.37;1.37;;;14.20;99.90;;;;;;5094138;28;20093;-48
2023/07/25 05:04:29;;;;;;;2.78;0.95;;;14.20;99.90;;;;;;5095084;28;20067;-48
2023/07/25 05:06:55;;;;;;;1.90;0.80;;;14.20;99.90;;;;;;5095411;28;20507;-49
2023/07/25 05:09:21;;;;;;;2.30;0.93;;;14.20;99.90;;;;;;5095199;28;20377;-48
2023/07/25 05:11:52;;;;;;;3.07;1.00;;;14.30;99.90;;;;;;5095052;28;20047;-48
2023/07/25 05:14:18;;;;;;;3.97;1.00;;;14.30;99.90;;;;;;5093907;28;20419;-48
2023/07/25 05:16:44;;;;;;;3.97;1.03;;;14.30;99.90;;;;;;5094982;28;20075;-48
2023/07/25 05:19:10;;;;;;;3.93;1.20;;;14.40;99.90;;;;;;5093560;28;20290;-48
2023/07/25 05:21:35;;;;;;;4.00;1.00;;;14.40;99.90;;;;;;5095134;28;20048;-48
2023/07/25 05:24:02;;;;;;;6.80;1.00;;;14.40;99.90;;;;;;5094885;28;20479;-48
2023/07/25 05:26:27;;;;;;;;;;;14.50;99.90;;;;;;5095187;28;20517;-48
2023/07/25 05:28:53;;;;;;;3.47;0.95;;;14.50;99.90;;;;;;5093729;28;19919;-48
2023/07/25 05:31:19;;;;;;;3.03;1.40;;;14.50;99.90;;;;;;5094520;28;20047;-47
2023/07/25 05:33:44;;;;;;;4.53;1.10;;;14.60;99.90;;;;;;5094757;28;20039;-47
2023/07/25 05:36:10;;;;;;;3.05;1.02;;;14.80;99.90;;;;;;5095014;28;20044;-47
2023/07/25 05:38:36;;;;;;;3.50;0.80;;;15.20;99.90;;;;;;5094687;28;20043;-49
2023/07/25 05:41:02;;;;;;;3.07;0.87;;;15.40;99.90;;;;;;5094787;28;20055;-47
2023/07/25 05:43:28;;;;;;;2.78;0.90;;;15.50;99.90;;;;;;5094379;28;20087;-47
2023/07/25 05:45:54;;;;;;;1.95;0.85;;;15.60;99.90;;;;;;5093214;28;20079;-47
2023/07/25 05:48:19;;;;;;;3.70;1.10;;;15.50;99.90;;;;;;5093186;28;20047;-48
2023/07/25 05:50:52;;;;;;;3.63;0.90;;;15.40;99.90;;;;;;5094445;28;20097;-47
2023/07/25 05:53:18;;;;;;;2.83;0.90;;;15.30;99.90;;;;;;5094327;28;20051;-48
2023/07/25 05:55:45;;;;;;;3.00;0.90;;;15.20;99.90;;;;;;5094408;28;20048;-47
2023/07/25 05:58:16;;;;;;;4.00;0.90;;;15.10;99.90;;;;;;5094143;28;20090;-46
2023/07/25 06:00:43;;;;;;;3.45;0.88;;;15.10;99.90;;;;;;5094081;28;20067;-47
2023/07/25 06:03:14;;;;;;;3.67;1.00;;;15.10;99.90;;;;;;5076250;28;20123;-46
2023/07/25 06:05:40;;;;;;;4.43;1.30;;;15.20;99.90;;;;;;5094284;28;20051;-48
2023/07/25 06:08:06;;;;;;;;;;;15.20;99.90;;;;;;5094406;28;20506;-47
2023/07/25 06:10:32;;;;;;;6.18;0.90;;;15.30;99.90;;;;;;5094114;28;19920;-47
2023/07/25 06:12:58;;;;;;;2.75;1.00;;;15.30;99.90;;;;;;5094136;28;20467;-48
2023/07/25 06:15:24;;;;;;;2.78;1.00;;;15.40;99.90;;;;;;5093044;28;20059;-46
2023/07/25 06:17:50;;;;;;;3.58;0.80;;;15.60;99.90;;;;;;5094033;28;20411;-47
2023/07/25 06:20:16;;;;;;;3.60;0.90;;;15.90;99.90;;;;;;5093946;28;20048;-46
2023/07/25 06:22:42;;;;;;;3.10;0.75;;;16.00;99.90;;;;;;5093773;28;20494;-46
2023/07/25 06:25:09;;;;;;;3.80;0.77;;;16.10;99.90;;;;;;5094065;28;20044;-47
2023/07/25 06:27:34;;;;;;;3.53;0.65;;;16.10;99.90;;;;;;5093936;28;20044;-46
2023/07/25 06:30:02;;;;;;;3.03;0.70;;;16.10;99.90;;;;;;5093761;28;20089;-46
2023/07/25 06:32:29;;;;;;;2.75;0.70;;;16.30;99.90;;;;;;5092913;28;20081;-46
2023/07/25 06:34:55;;;;;;;2.65;1.08;;;16.40;99.90;;;;;;5093679;28;20510;-47
2023/07/25 06:37:21;;;;;;;2.90;0.60;;;16.50;99.90;;;;;;5093637;28;20040;-46
2023/07/25 06:39:46;;;;;;;2.72;0.90;;;16.60;99.90;;;;;;5093764;28;20044;-45
2023/07/25 06:42:12;;;;;;;2.77;0.60;;;16.70;99.90;;;;;;5092715;28;20048;-47
2023/07/25 06:44:38;;;;;;;2.15;0.68;;;16.80;99.90;;;;;;5097674;28;20302;-46
2023/07/25 06:47:03;;;;;;;2.53;0.60;;;16.90;99.90;;;;;;5098169;28;20499;-45
2023/07/25 06:49:29;;;;;;;3.35;0.50;;;16.90;99.90;;;;;;5097927;28;20044;-46
2023/07/25 06:51:55;;;;;;;1.95;0.50;;;16.90;99.90;;;;;;5097802;28;20060;-46
2023/07/25 06:54:22;;;;;;;1.88;0.32;;;17.00;99.90;;;;;;5097744;28;20063;-46
2023/07/25 06:56:48;;;;;;;2.50;0.70;;;17.00;99.90;;;;;;5097565;28;20047;-48
2023/07/25 06:59:14;;;;;;;2.97;0.40;;;16.90;99.90;;;;;;5097490;28;20044;-47
2023/07/25 07:01:40;;;;;;;1.33;0.40;;;17.00;99.90;;;;;;5097714;28;20050;-46
2023/07/25 07:04:05;;;;;;;1.60;0.30;;;17.20;99.90;;;;;;5097561;28;20146;-46
2023/07/25 07:06:31;;;;;;;1.35;0.50;;;17.40;99.90;;;;;;5097316;28;20131;-47
2023/07/25 07:08:57;;;;;;;4.85;0.50;;;17.40;99.90;;;;;;5096169;28;20040;-48
2023/07/25 07:11:23;;;;;;;4.57;0.30;;;17.40;99.90;;;;;;5097591;28;20036;-47
2023/07/25 07:13:49;;;;;;;3.28;0.45;;;17.20;99.90;;;;;;5097136;28;20036;-48
2023/07/25 07:16:15;;;;;;;2.83;0.32;;;17.00;99.90;;;;;;5096442;28;20422;-47
2023/07/25 07:18:40;;;;;;;1.75;0.30;;;17.00;99.90;;;;;;5097314;28;20048;-47
2023/07/25 07:21:06;;;;;;;4.90;0.50;;;17.30;99.90;;;;;;5097214;28;20044;-47
2023/07/25 07:23:33;;;;;;;1.80;0.50;;;17.60;99.90;;;;;;5097039;28;20347;-54
2023/07/25 07:25:58;;;;;;;0.75;0.30;;;17.70;99.90;;;;;;5097249;28;20079;-46
2023/07/25 07:28:24;;;;;;;1.30;0.40;;;17.80;99.90;;;;;;5097124;28;20465;-47
2023/07/25 07:30:51;;;;;;;0.68;0.40;;;17.70;99.90;;;;;;5097108;28;20046;-47
2023/07/25 07:33:19;;;;;;;2.60;0.30;;;17.60;99.90;;;;;;5097468;28;20478;-48
2023/07/25 07:35:45;;;;;;;2.20;0.30;;;17.50;99.90;;;;;;5096988;28;20177;-47
2023/07/25 07:38:12;;;;;;;0.98;0.20;;;17.40;99.90;;;;;;5096970;28;20130;-47
2023/07/25 07:40:38;;;;;;;3.38;0.30;;;17.30;99.90;;;;;;5096703;28;20044;-48
2023/07/25 07:43:03;;;;;;;2.80;0.75;;;17.20;99.90;;;;;;5096575;28;20067;-48
2023/07/25 07:45:31;;;;;;;1.25;0.32;;;17.20;99.90;;;;;;5096904;28;20125;-50
2023/07/25 07:47:56;;;;;;;1.95;0.30;;;17.20;99.90;;;;;;5095583;28;20048;-47
2023/07/25 07:50:22;;;;;;;1.85;0.30;;;17.20;99.90;;;;;;5078846;28;20055;-47
2023/07/25 07:52:48;;;;;;;2.07;0.40;;;17.10;99.90;;;;;;5095786;28;20048;-49
2023/07/25 07:55:15;;;;;;;0.90;0.25;;;16.90;99.90;;;;;;5096364;28;20282;-50
2023/07/25 07:57:43;;;;;;;0.43;0.20;;;16.90;99.90;;;;;;5096369;28;20048;-49
2023/07/25 08:00:11;;;;;;;0.50;0.20;;;16.80;99.90;;;;;;5096556;28;20054;-47
2023/07/25 08:02:37;;;;;;;2.83;0.55;;;16.90;99.90;;;;;;5096608;28;20044;-47
2023/07/25 08:05:03;;;;;;;2.90;0.40;;;16.90;99.90;;;;;;5096129;28;20044;-47
2023/07/25 08:07:29;;;;;;;1.42;0.40;;;16.90;99.90;;;;;;5096357;28;20131;-48
2023/07/25 08:09:55;;;;;;;1.45;0.20;;;16.80;99.90;;;;;;5096223;28;20552;-49
2023/07/25 08:12:21;;;;;;;;;;;16.80;99.90;;;;;;5096938;28;20052;-48
2023/07/25 08:14:47;;;;;;;1.17;0.30;;;16.70;99.90;;;;;;5096360;28;19927;-49
2023/07/25 08:17:13;;;;;;;3.00;0.50;;;16.80;99.90;;;;;;5096509;28;20048;-48
2023/07/25 08:19:39;;;;;;;;;;;16.80;99.90;;;;;;5096638;28;20049;-47
2023/07/25 08:22:05;;;;;;;1.92;0.40;;;16.80;99.90;;;;;;5095957;28;20374;-48
2023/07/25 08:24:32;;;;;;;1.88;0.40;;;16.80;99.90;;;;;;5094627;28;20414;-51
2023/07/25 08:26:59;;;;;;;1.38;0.20;;;16.90;99.90;;;;;;5096111;28;20048;-49
2023/07/25 08:29:25;;;;;;;1.92;0.40;;;16.90;99.90;;;;;;5096207;28;20063;-50
2023/07/25 08:31:51;;;;;;;1.30;0.40;;;16.90;99.90;;;;;;5095914;28;20055;-51
2023/07/25 08:34:17;;;;;;;1.65;0.40;;;17.00;99.90;;;;;;5095734;28;20048;-51
2023/07/25 08:36:43;;;;;;;0.75;0.40;;;17.00;99.90;;;;;;5095728;28;20067;-53
2023/07/25 08:39:09;;;;;;;2.25;0.40;;;17.10;99.90;;;;;;5095615;28;20039;-49
2023/07/25 08:41:51;;;;;;;1.27;0.47;;;17.20;99.90;;;;;;5095746;28;20040;-48
2023/07/25 08:44:19;;;;;;;1.80;0.32;;;17.20;99.90;;;;;;5095720;28;20047;-49
2023/07/25 08:46:45;;;;;;;1.50;0.57;;;17.20;99.90;;;;;;5095488;28;20058;-50
2023/07/25 08:49:16;;;;;;;1.83;0.40;;;17.20;99.90;;;;;;5094424;28;20036;-50
2023/07/25 08:51:43;;;;;;;3.10;0.47;;;17.10;99.90;;;;;;5094402;28;20056;-49
2023/07/25 08:54:28;;;;;;;3.47;0.40;;;17.20;99.90;;;;;;5095477;28;20522;-48
2023/07/25 08:56:54;;;;;;;0.98;0.45;;;17.20;99.90;;;;;;5095246;28;20487;-50
2023/07/25 08:59:19;;;;;;;;;;;17.30;99.90;;;;;;5096013;28;20044;-53
2023/07/25 09:01:46;;;;;;;2.10;0.57;;;17.30;99.90;;;;;;5095175;28;19989;-48
2023/07/25 09:04:13;;;;;;;2.10;0.30;;;17.30;99.90;;;;;;5095095;28;20054;-52
2023/07/25 09:06:39;;;;;;;2.42;0.40;;;17.40;99.90;;;;;;5095113;28;20380;-49
2023/07/25 09:09:06;;;;;;;2.15;0.30;;;17.50;99.90;;;;;;5094062;28;20051;-48
2023/07/25 09:11:33;;;;;;;1.17;0.88;;;17.50;99.90;;;;;;5095060;28;20054;-53
2023/07/25 09:14:03;;;;;;;1.25;0.35;;;17.50;99.90;;;;;;5093925;28;20087;-49
2023/07/25 09:16:30;;;;;;;1.90;0.30;;;17.40;99.90;;;;;;5094903;28;20051;-49
2023/07/25 09:18:55;;;;;;;0.82;0.30;;;17.50;99.90;;;;;;5094916;28;20052;-49
2023/07/25 09:21:21;;;;;;;1.50;0.40;;;17.40;99.90;;;;;;5094233;28;20044;-47
2023/07/25 09:23:54;;;;;;;1.15;0.30;;;17.40;99.90;;;;;;5094897;28;20044;-48
2023/07/25 09:26:25;;;;;;;1.48;0.30;;;17.40;99.90;;;;;;5094805;28;20084;-51
2023/07/25 09:28:52;;;;;;;2.10;0.30;;;17.40;99.90;;;;;;5094756;28;20056;-54
2023/07/25 09:31:19;;;;;;;1.75;0.20;;;17.40;99.90;;;;;;5094528;28;20093;-50
2023/07/25 09:33:50;;;;;;;1.02;0.30;;;17.40;99.90;;;;;;5093798;28;20055;-53
2023/07/25 09:36:16;;;;;;;1.20;0.30;;;17.40;99.90;;;;;;5094756;28;20482;-48
2023/07/25 09:38:53;;;;;;;2.75;0.43;;;17.40;99.90;;;;;;5094603;28;20044;-47
2023/07/25 09:41:21;;;;;;;1.83;0.30;;;17.40;99.90;;;;;;5076594;28;20093;-49
2023/07/25 09:43:46;;;;;;;3.03;0.35;;;17.40;99.90;;;;;;5094441;28;20044;-47
2023/07/25 09:46:12;;;;;;;2.28;0.30;;;17.40;99.90;;;;;;5094850;28;20043;-48
2023/07/25 09:48:46;;;;;;;2.33;0.40;;;17.30;99.90;;;;;;5094545;28;20483;-48
2023/07/25 09:51:12;;;;;;;0.63;0.20;;;17.30;99.90;;;;;;5093398;28;20051;-48
2023/07/25 09:53:42;;;;;;;3.15;0.85;;;17.20;99.90;;;;;;5094275;28;20044;-49
2023/07/25 09:56:08;;;;;;;1.17;0.30;;;17.20;99.90;;;;;;5094104;28;20043;-49
2023/07/25 09:58:34;;;;;;;;;;;17.20;99.90;;;;;;5094574;28;20095;-49
2023/07/25 10:01:02;;;;;;;3.00;0.63;;;17.20;99.90;;;;;;5094333;28;19920;-48
2023/07/25 10:03:29;;;;;;;2.47;0.32;;;17.30;99.90;;;;;;5094185;28;20475;-49
2023/07/25 10:05:56;;;;;;;1.33;0.50;;;17.30;99.90;;;;;;5094103;28;20113;-49
2023/07/25 10:08:24;;;;;;;1.63;0.32;;;17.40;99.90;;;;;;5094166;28;20131;-49
2023/07/25 10:10:50;;;;;;;2.60;0.30;;;17.40;99.90;;;;;;5094059;28;20048;-48
2023/07/25 10:13:16;;;;;;;;;;;17.40;99.90;;;;;;5094532;28;20180;-50
2023/07/25 10:15:42;;;;;;;1.55;0.40;;;17.40;99.90;;;;;;5092821;28;20397;-49
2023/07/25 10:18:23;;;;;;;4.05;0.60;;;17.50;99.90;;;;;;5093211;28;20076;-48
2023/07/25 10:20:50;;;;;;;2.55;0.50;;;17.60;99.90;;;;;;5094133;28;20148;-48
2023/07/25 10:23:16;;;;;;;2.38;0.40;;;17.60;99.90;;;;;;5093935;28;20090;-49
2023/07/25 10:25:41;;;;;;;1.77;0.20;;;17.60;99.90;;;;;;5093753;28;20082;-48
2023/07/25 10:28:07;;;;;;;0.68;0.38;;;17.70;99.90;;;;;;5094044;28;20035;-48
2023/07/25 10:30:40;;;;;;;1.42;0.30;;;17.70;99.90;;;;;;5092910;28;20071;-48
2023/07/25 10:33:07;;;;;;;0.82;0.35;;;17.70;99.90;;;;;;5093851;28;20040;-50
2023/07/25 10:35:54;;;;;;;1.48;0.45;;;17.70;99.90;;;;;;5075895;28;20044;-47
2023/07/25 10:38:42;;;;;;;0.88;0.40;;;17.70;99.90;;;;;;5093099;28;20043;-49
2023/07/25 10:41:08;;;;;;;;;;;17.80;99.90;;;;;;5094585;28;20402;-48
2023/07/25 10:43:48;;;;;;;4.53;0.50;;;18.00;99.90;;;;;;5093770;28;19927;-51
2023/07/25 10:46:35;;;;;;;0.85;0.40;;;18.10;99.90;;;;;;5093690;28;20051;-47
2023/07/25 10:49:03;;;;;;;4.00;0.47;;;18.10;99.90;;;;;;5093723;28;20079;-54
2023/07/25 10:51:52;;;;;;;2.17;0.73;;;18.00;99.90;;;;;;5093005;28;20373;-51
2023/07/25 10:54:23;;;;;;;3.30;0.47;;;18.00;99.90;;;;;;5093590;28;20051;-50
2023/07/25 10:57:17;;;;;;;1.13;0.40;;;17.90;99.90;;;;;;5093561;28;20100;-48
2023/07/25 10:59:59;;;;;;;1.20;0.47;;;18.00;99.90;;;;;;5093401;28;20483;-50
2023/07/25 11:02:33;;;;;;;1.63;0.40;;;18.10;99.90;;;;;;5093781;28;20059;-48
2023/07/25 11:05:14;;;;;;;1.92;0.57;;;18.20;99.90;;;;;;5092008;28;20044;-49
2023/07/25 11:07:46;;;;;;;1.40;0.30;;;18.20;99.90;;;;;;5093586;28;20078;-49
2023/07/25 11:10:33;;;;;;;2.35;0.40;;;18.40;99.90;;;;;;5093532;28;20444;-49
2023/07/25 11:13:00;;;;;;;2.78;0.38;;;18.60;99.90;;;;;;5093750;28;20055;-48
2023/07/25 11:15:27;;;;;;;1.80;0.32;;;18.80;99.90;;;;;;5093252;28;20093;-53
2023/07/25 11:17:52;;;;;;;;;;;18.90;99.90;;;;;;5093650;28;20047;-49
2023/07/25 11:20:24;;;;;;;1.75;0.30;;;18.80;99.90;;;;;;5093489;28;19924;-51
2023/07/25 11:22:51;;;;;;;0.30;0.20;;;18.80;99.90;;;;;;5093507;28;20101;-50
2023/07/25 11:25:17;;;;;;;1.23;0.20;;;18.60;99.90;;;;;;5093342;28;20095;-53
2023/07/25 11:27:45;;;;;;;1.35;0.45;;;18.60;99.90;;;;;;5093159;28;20051;-50
2023/07/25 11:30:11;;;;;;;1.05;0.28;;;18.70;99.90;;;;;;5096444;28;20044;-49
2023/07/25 11:32:38;;;;;;;1.52;0.35;;;18.90;99.90;;;;;;5097161;28;20055;-49
2023/07/25 11:35:05;;;;;;;;;;;19.20;99.90;;;;;;5096330;28;20040;-50
2023/07/25 11:37:31;;;;;;;5.00;0.52;;;19.30;99.90;;;;;;5113360;28;19919;-49
2023/07/25 11:40:09;;;;;;;1.90;0.55;;;19.50;99.90;;;;;;5096872;28;20054;-49
2023/07/25 11:42:35;;;;;;;1.90;0.40;;;19.60;99.90;;;;;;5096900;28;20412;-49
2023/07/25 11:45:01;;;;;;;0.70;0.40;;;19.70;99.90;;;;;;5096861;28;20055;-50
2023/07/25 11:47:26;;;;;;;43.90;36.38;;;19.90;99.90;;;;;;5097326;28;20044;-48
2023/07/25 11:49:52;;;;;;;3.13;1.00;;;19.90;99.90;;;;;;5096751;28;20044;-50
2023/07/25 11:52:19;;;;;;;2.50;0.70;;;19.80;99.90;;;;;;5096759;28;20073;-49
2023/07/25 11:54:45;;;;;;;2.47;0.40;;;19.70;99.90;;;;;;5096383;28;20521;-50
2023/07/25 11:57:11;;;;;;;1.95;0.40;;;19.70;99.90;;;;;;5096400;28;20088;-47
2023/07/25 11:59:40;;;;;;;1.33;0.43;;;19.60;99.90;;;;;;5096585;28;20040;-48
2023/07/25 12:02:06;;;;;;;1.13;0.32;;;19.50;99.90;;;;;;5096467;28;20097;-52
2023/07/25 12:04:32;;;;;;;1.27;0.25;;;19.30;99.90;;;;;;5096428;28;20040;-48
2023/07/25 12:07:01;;;;;;;2.53;0.40;;;19.20;99.90;;;;;;5096496;28;20074;-49
2023/07/25 12:09:29;;;;;;;1.40;0.30;;;19.10;99.90;;;;;;5095354;28;20067;-49
2023/07/25 12:11:55;;;;;;;1.05;0.30;;;19.00;99.90;;;;;;5096079;28;20081;-47
2023/07/25 12:14:22;;;;;;;2.10;0.35;;;19.00;99.90;;;;;;5096300;28;20044;-50
2023/07/25 12:16:47;;;;;;;0.52;0.20;;;18.90;99.90;;;;;;5095316;28;20052;-50
2023/07/25 12:19:14;;;;;;;1.00;0.22;;;18.80;99.90;;;;;;5094979;28;20543;-50
2023/07/25 12:21:44;;;;;;;2.08;0.32;;;18.80;99.90;;;;;;5096167;28;20131;-49
2023/07/25 12:24:12;;;;;;;2.00;0.32;;;18.80;99.90;;;;;;5094911;28;20082;-49
2023/07/25 12:26:46;;;;;;;3.35;0.30;;;18.80;99.90;;;;;;5096147;28;20044;-49
2023/07/25 12:29:14;;;;;;;0.85;0.20;;;18.70;99.90;;;;;;5096034;28;20083;-49
2023/07/25 12:31:40;;;;;;;2.20;0.55;;;18.70;99.90;;;;;;5095905;28;20051;-50
2023/07/25 12:34:06;;;;;;;3.35;0.30;;;18.60;99.90;;;;;;5095313;28;20055;-48
2023/07/25 12:36:31;;;;;;;2.05;0.25;;;18.60;99.90;;;;;;5095117;28;20383;-50
2023/07/25 12:38:57;;;;;;;1.65;0.60;;;18.60;99.90;;;;;;5095527;28;20048;-49
2023/07/25 12:41:24;;;;;;;1.48;0.28;;;18.70;99.90;;;;;;5094933;28;20059;-53
2023/07/25 12:43:49;;;;;;;;;;;18.70;99.90;;;;;;5096089;28;20044;-49
2023/07/25 12:46:15;;;;;;;0.82;0.30;;;18.80;99.90;;;;;;5095625;28;19924;-49
2023/07/25 12:48:40;;;;;;;0.82;0.40;;;18.80;99.90;;;;;;5095569;28;20475;-49